Time;durP1;ratioP1;P1;durP2;ratioP2;P2;SDS_P1;SDS_P2;PMS_P1;PMS_P2;Temp;Humidity;BMP_temperature;BMP_pressure;BME280_temperature;BME280_humidity;BME280_pressure;Samples;Min_cycle;Max_cycle;Signal;HPM_P1;HPM_P2
2023/02/02 00:01:47;;;;;;;17.30;4.05;;;5.40;99.90;;;4.25;100.00;97952.94;5114124;28;20399;-79
2023/02/02 00:04:17;;;;;;;18.02;4.82;;;5.30;99.90;;;4.32;100.00;97948.53;5114487;28;20405;-80
2023/02/02 00:06:43;;;;;;;14.43;3.60;;;5.40;99.90;;;4.41;100.00;97947.34;5114295;28;20518;-79
2023/02/02 00:09:15;;;;;;;16.73;3.88;;;5.40;99.90;;;4.20;100.00;97944.88;5096054;28;20483;-79
2023/02/02 00:11:41;;;;;;;16.75;3.80;;;5.30;99.90;;;4.09;100.00;97941.00;5113910;28;20408;-81
2023/02/02 00:14:07;;;;;;;14.60;3.50;;;5.20;99.90;;;4.08;100.00;97935.94;5114253;28;20426;-79
2023/02/02 00:16:42;;;;;;;12.40;3.83;;;5.20;99.90;;;4.03;100.00;97938.34;5114055;28;20508;-79
2023/02/02 00:19:12;;;;;;;14.27;4.25;;;5.20;99.90;;;4.03;100.00;97931.31;5114200;28;20441;-79
2023/02/02 00:21:38;;;;;;;13.20;3.67;;;5.20;99.90;;;4.06;100.00;97928.28;5113644;28;20420;-80
2023/02/02 00:24:06;;;;;;;16.40;3.70;;;5.10;99.90;;;4.07;100.00;97932.50;5113913;28;20873;-80
2023/02/02 00:26:32;;;;;;;15.93;4.35;;;5.20;99.90;;;4.12;100.00;97937.19;5113882;28;20483;-79
2023/02/02 00:28:58;;;;;;;16.63;3.83;;;5.20;99.90;;;4.04;100.00;97932.91;5113953;28;20892;-80
2023/02/02 00:31:24;;;;;;;16.02;3.83;;;5.20;99.90;;;4.06;100.00;97949.22;5113710;28;20463;-80
2023/02/02 00:33:51;;;;;;;16.47;4.20;;;5.20;99.90;;;4.07;100.00;97953.47;5113740;28;20508;-80
2023/02/02 00:36:19;;;;;;;21.60;4.82;;;5.20;99.90;;;4.01;100.00;97950.81;5113805;28;20408;-80
2023/02/02 00:38:46;;;;;;;14.60;3.65;;;5.20;99.90;;;3.99;100.00;97945.78;5113694;28;21225;-80
2023/02/02 00:41:12;;;;;;;21.65;4.00;;;5.10;99.90;;;4.03;100.00;97941.78;5113599;28;20400;-80
2023/02/02 00:43:38;;;;;;;11.45;4.10;;;5.10;99.90;;;4.17;100.00;97946.06;5113531;28;20881;-80
2023/02/02 00:46:04;;;;;;;16.77;4.23;;;5.20;99.90;;;3.95;100.00;97934.09;5113607;28;20439;-79
2023/02/02 00:48:30;;;;;;;17.55;4.13;;;5.10;99.90;;;4.22;100.00;97945.47;5113444;28;20392;-79
2023/02/02 00:50:56;;;;;;;16.98;4.43;;;5.20;99.90;;;4.21;100.00;97939.41;5113466;28;20873;-80
2023/02/02 00:53:24;;;;;;;17.25;3.90;;;5.30;99.90;;;4.14;100.00;97935.97;5113268;28;20424;-80
2023/02/02 00:55:49;;;;;;;19.17;4.35;;;5.30;99.90;;;4.24;100.00;97944.25;5113367;28;20408;-80
2023/02/02 00:58:15;;;;;;;14.02;4.25;;;5.30;99.90;;;4.25;100.00;97935.41;5095097;28;20943;-80
2023/02/02 01:00:41;;;;;;;18.80;4.40;;;5.30;99.90;;;4.19;100.00;97925.72;5113355;28;20415;-80
2023/02/02 01:03:08;;;;;;;21.70;4.45;;;5.30;99.90;;;4.14;100.00;97928.09;5094697;28;20431;-80
2023/02/02 01:05:34;;;;;;;14.90;3.90;;;5.20;99.90;;;4.20;100.00;97929.16;5113349;28;20479;-79
2023/02/02 01:08:01;;;;;;;13.02;3.85;;;5.30;99.90;;;4.22;100.00;97929.72;5093895;28;20396;-80
2023/02/02 01:10:28;;;;;;;15.90;5.00;;;5.30;99.90;;;4.28;100.00;97944.69;5113186;28;20569;-80
2023/02/02 01:12:54;;;;;;;16.50;4.03;;;5.30;99.90;;;4.15;100.00;97934.97;5112704;28;20881;-79
2023/02/02 01:15:20;;;;;;;16.77;4.23;;;5.30;99.90;;;4.14;100.00;97941.19;5113025;28;20435;-79
2023/02/02 01:17:45;;;;;;;15.10;4.18;;;5.30;99.90;;;4.03;100.00;97933.91;5113008;28;21102;-80
2023/02/02 01:20:17;;;;;;;17.85;3.83;;;5.20;99.90;;;4.07;100.00;97945.59;5112823;28;20400;-80
2023/02/02 01:22:43;;;;;;;12.68;3.15;;;5.20;99.90;;;4.07;100.00;97942.19;5112307;28;20393;-79
2023/02/02 01:25:09;;;;;;;13.18;3.90;;;5.20;99.90;;;4.07;100.00;97942.19;5112623;28;20399;-79
2023/02/02 01:27:36;;;;;;;16.23;3.45;;;5.20;99.90;;;4.20;100.00;97953.53;5112737;28;20729;-79
2023/02/02 01:30:04;;;;;;;14.10;3.73;;;5.30;99.90;;;4.22;100.00;97951.50;5112703;28;20553;-80
2023/02/02 01:32:29;;;;;;;12.57;3.15;;;5.30;99.90;;;4.14;100.00;97951.69;5112182;28;20395;-79
2023/02/02 01:34:55;;;;;;;14.52;3.83;;;5.30;99.90;;;4.20;100.00;97969.25;5094294;28;20896;-79
2023/02/02 01:37:21;;;;;;;16.35;3.72;;;5.30;99.90;;;4.21;100.00;97955.13;5112572;28;20445;-79
2023/02/02 01:39:47;;;;;;;12.60;3.45;;;5.30;99.90;;;4.13;100.00;97952.72;5112692;28;20488;-79
2023/02/02 01:42:23;;;;;;;13.67;3.87;;;5.30;99.90;;;4.11;100.00;97964.38;5112341;28;20396;-79
2023/02/02 01:45:19;;;;;;;11.23;3.30;;;5.20;99.90;;;4.02;100.00;97973.41;5112638;28;20877;-78
2023/02/02 01:47:50;;;;;;;16.25;3.80;;;5.20;99.90;;;4.20;100.00;97966.63;5112420;28;20392;-79
2023/02/02 01:50:20;;;;;;;15.63;3.78;;;5.10;99.90;;;4.05;100.00;97958.13;5112486;28;20399;-80
2023/02/02 01:52:50;;;;;;;14.90;3.50;;;5.20;99.90;;;4.19;100.00;97954.53;5111918;28;20404;-80
2023/02/02 01:55:22;;;;;;;18.30;4.28;;;5.30;99.90;;;4.06;100.00;97954.47;5112182;28;20412;-80
2023/02/02 01:57:54;;;;;;;13.45;4.00;;;5.20;99.90;;;4.10;100.00;97958.31;5112036;28;20749;-80
2023/02/02 02:00:26;;;;;;;19.00;4.00;;;5.20;99.90;;;4.23;100.00;97952.31;5112112;28;20405;-80
2023/02/02 02:02:56;;;;;;;12.05;4.13;;;5.30;99.90;;;4.12;100.00;97955.53;5111676;28;20407;-80
2023/02/02 02:05:30;;;;;;;13.60;3.40;;;5.30;99.90;;;4.19;100.00;97953.72;5112171;28;20726;-80
2023/02/02 02:08:07;;;;;;;13.57;4.07;;;5.20;99.90;;;4.18;100.00;97946.88;5112034;28;20478;-80
2023/02/02 02:10:33;;;;;;;17.45;4.00;;;5.30;99.90;;;4.11;100.00;97949.47;5112146;28;20464;-79
2023/02/02 02:12:59;;;;;;;15.82;4.55;;;5.20;99.90;;;4.09;100.00;97945.41;5111458;28;20412;-80
2023/02/02 02:18:30;;;;;;;12.80;3.47;;;5.30;99.90;;;4.21;100.00;97946.50;5111500;28;20447;-80
2023/02/02 02:29:03;;;;;;;13.98;3.45;;;5.20;99.90;;;4.26;100.00;97952.75;5111535;28;20418;-80
2023/02/02 02:32:02;;;;;;;13.85;3.85;;;5.20;99.90;;;4.36;100.00;97954.97;5109735;28;20438;-79
2023/02/02 02:34:45;;;;;;;16.27;3.20;;;5.40;99.90;;;4.25;100.00;97943.25;5103411;28;20449;-80
2023/02/02 02:37:22;;;;;;;12.85;3.92;;;5.40;99.90;;;4.19;100.00;97951.09;5102675;28;20419;-80
2023/02/02 02:39:54;;;;;;;11.05;3.58;;;5.30;99.90;;;4.25;100.00;97956.38;5104525;28;20477;-79
2023/02/02 02:42:27;;;;;;;10.80;3.40;;;5.30;99.90;;;4.16;100.00;97952.31;5083304;28;20788;-80
2023/02/02 02:44:55;;;;;;;18.55;4.05;;;5.30;99.90;;;4.17;100.00;97953.91;5103806;28;20906;-80
2023/02/02 02:47:22;;;;;;;10.77;3.40;;;5.30;99.90;;;4.20;100.00;97947.50;5110405;28;20400;-80
2023/02/02 02:49:48;;;;;;;12.07;3.20;;;5.30;99.90;;;4.19;100.00;97938.81;5111281;28;20407;-80
2023/02/02 02:52:15;;;;;;;9.45;3.67;;;5.30;99.90;;;4.08;100.00;97941.19;5092733;28;20773;-80
2023/02/02 02:54:48;;;;;;;10.65;3.17;;;5.20;99.90;;;4.26;100.00;97941.47;5111206;28;20465;-80
2023/02/02 02:57:57;;;;;;;9.60;3.17;;;5.30;99.90;;;4.20;100.00;97943.06;5111011;28;20412;-80
2023/02/02 03:00:43;;;;;;;11.02;3.30;;;5.30;99.90;;;4.23;100.00;97944.47;5067451;28;20400;-80
2023/02/02 03:03:25;;;;;;;15.98;4.03;;;5.40;99.90;;;4.17;100.00;97953.09;5092279;28;20811;-80
2023/02/02 03:05:59;;;;;;;15.30;3.65;;;5.30;99.90;;;4.20;100.00;97950.91;5110770;28;20389;-80
2023/02/02 03:08:31;;;;;;;9.70;3.67;;;5.30;99.90;;;4.32;100.00;97952.94;5110920;28;20452;-80
2023/02/02 03:11:01;;;;;;;11.02;3.33;;;5.40;99.90;;;4.29;100.00;97957.56;5110960;28;20396;-80
2023/02/02 03:13:28;;;;;;;13.68;3.60;;;5.40;99.90;;;4.43;100.00;97952.41;5110845;28;20400;-80
2023/02/02 03:15:55;;;;;;;9.02;3.05;;;5.50;99.90;;;4.32;100.00;97945.91;5110918;28;20404;-80
2023/02/02 03:18:26;;;;;;;13.57;3.67;;;5.40;99.90;;;4.31;100.00;97951.34;5110934;28;20407;-80
2023/02/02 03:20:52;;;;;;;7.82;3.15;;;5.40;99.90;;;4.47;100.00;97954.41;5110974;28;20822;-80
2023/02/02 03:23:18;;;;;;;11.50;3.07;;;5.60;99.90;;;4.31;100.00;97960.00;5110539;28;20388;-80
2023/02/02 03:25:44;;;;;;;10.05;2.92;;;5.40;99.90;;;4.39;100.00;97953.78;5110696;28;20475;-80
2023/02/02 03:28:11;;;;;;;8.27;3.38;;;5.40;99.90;;;4.30;100.00;97945.28;5110443;28;20399;-80
2023/02/02 03:30:39;;;;;;;10.23;2.97;;;5.40;99.90;;;4.45;100.00;97950.38;5112253;28;20913;-81
2023/02/02 03:33:05;;;;;;;9.55;3.40;;;5.50;99.90;;;4.31;100.00;97949.53;5114619;28;20392;-80
2023/02/02 03:35:32;;;;;;;10.98;3.10;;;5.40;99.90;;;4.36;100.00;97941.88;5114747;28;20416;-80
2023/02/02 03:37:58;;;;;;;8.02;2.85;;;5.40;99.90;;;4.45;100.00;97938.06;5114818;28;20529;-79
2023/02/02 03:40:24;;;;;;;5.05;2.42;;;5.40;99.90;;;4.31;100.00;97935.59;5114917;28;20495;-80
2023/02/02 03:42:50;;;;;;;10.00;2.60;;;5.40;99.90;;;4.34;100.00;97938.66;5114178;28;20422;-79
2023/02/02 03:45:16;;;;;;;7.53;2.50;;;5.50;99.90;;;4.25;100.00;97930.16;5114556;28;20424;-80
2023/02/02 03:47:42;;;;;;;7.90;2.80;;;5.40;99.90;;;4.32;100.00;97930.19;5114842;28;20396;-80
2023/02/02 03:50:10;;;;;;;8.00;2.70;;;5.30;99.90;;;4.23;100.00;97940.03;5114581;28;20461;-80
2023/02/02 03:52:37;;;;;;;7.28;2.58;;;5.40;99.90;;;4.43;100.00;97947.16;5114231;28;20479;-80
2023/02/02 03:55:04;;;;;;;9.57;2.83;;;5.40;99.90;;;4.42;100.00;97946.34;5114442;28;20402;-80
2023/02/02 03:57:30;;;;;;;5.32;2.40;;;5.50;99.90;;;4.57;100.00;97946.97;5096116;28;20400;-80
2023/02/02 03:59:56;;;;;;;10.30;3.05;;;5.50;99.90;;;4.51;100.00;97953.00;5114435;28;20399;-80
2023/02/02 04:02:22;;;;;;;10.00;2.78;;;5.60;99.90;;;4.43;100.00;97957.63;5114189;28;20976;-80
2023/02/02 04:04:48;;;;;;;8.45;2.80;;;5.50;99.90;;;4.39;100.00;97962.44;5095912;28;20510;-80
2023/02/02 04:07:14;;;;;;;13.15;3.63;;;5.50;99.90;;;4.35;100.00;97966.50;5114426;28;20403;-80
2023/02/02 04:09:41;;;;;;;10.68;3.47;;;5.50;99.90;;;4.32;100.00;97959.00;5114234;28;20392;-80
2023/02/02 04:12:07;;;;;;;10.52;3.00;;;5.40;99.90;;;4.42;100.00;97969.94;5095432;28;20785;-79
2023/02/02 04:14:33;;;;;;;12.25;2.97;;;5.50;99.90;;;4.39;100.00;97969.50;5114118;28;20404;-80
2023/02/02 04:16:59;;;;;;;12.15;3.08;;;5.50;99.90;;;4.53;100.00;97968.53;5114020;28;20419;-80
2023/02/02 04:19:25;;;;;;;9.02;2.60;;;5.60;99.90;;;4.49;100.00;97962.88;5114075;28;20388;-80
2023/02/02 04:21:52;;;;;;;10.68;2.90;;;5.60;99.90;;;4.63;100.00;97972.41;5113554;28;20396;-80
2023/02/02 04:24:18;;;;;;;11.30;2.70;;;5.70;99.90;;;4.62;100.00;97975.22;5114029;28;20415;-80
2023/02/02 04:26:45;;;;;;;8.75;2.90;;;5.70;99.90;;;4.50;100.00;97977.63;5113896;28;20396;-80
2023/02/02 04:29:11;;;;;;;11.03;2.70;;;5.60;99.90;;;4.40;100.00;97968.50;5113786;28;20438;-80
2023/02/02 04:31:37;;;;;;;9.88;3.38;;;5.50;99.90;;;4.35;100.00;97981.41;5113374;28;20810;-80
2023/02/02 04:34:03;;;;;;;9.02;3.25;;;5.50;99.90;;;4.30;100.00;97974.09;5113644;28;20503;-80
2023/02/02 04:36:29;;;;;;;11.63;3.20;;;5.40;99.90;;;4.39;100.00;97986.03;5113728;28;20505;-80
2023/02/02 04:38:55;;;;;;;14.68;3.40;;;5.50;99.90;;;4.55;100.00;97969.97;5113768;28;20411;-80
2023/02/02 04:41:23;;;;;;;12.40;3.75;;;5.60;99.90;;;4.68;100.00;97982.28;5113174;28;20400;-80
2023/02/02 04:43:51;;;;;;;11.30;3.33;;;5.70;99.90;;;4.52;100.00;97975.59;5089370;22;20462;-79
2023/02/02 04:46:17;;;;;;;14.95;3.50;;;5.60;99.90;;;4.56;100.00;97973.38;5073483;28;20400;-80
2023/02/02 04:48:43;;;;;;;8.57;3.03;;;5.60;99.90;;;4.50;100.00;97984.69;5072673;28;20403;-79
2023/02/02 04:51:12;;;;;;;15.40;4.20;;;5.60;99.90;;;4.68;100.00;98009.31;5071697;28;20872;-78
2023/02/02 04:53:38;;;;;;;14.17;3.50;;;5.60;99.90;;;4.81;100.00;97998.03;5068430;28;20403;-79
2023/02/02 04:56:06;;;;;;;10.60;3.50;;;5.80;99.90;;;4.77;100.00;97996.03;5072393;28;20418;-78
2023/02/02 04:58:31;;;;;;;12.27;3.08;;;5.80;99.90;;;4.72;100.00;98004.50;5055068;28;20405;-79
2023/02/02 05:00:59;;;;;;;14.27;4.00;;;5.80;99.90;;;4.80;100.00;97995.63;5052871;28;20478;-79
2023/02/02 05:03:24;;;;;;;13.05;3.30;;;5.80;99.90;;;4.82;100.00;98001.47;5052395;28;20432;-79
2023/02/02 05:05:50;;;;;;;15.75;3.47;;;5.90;99.90;;;4.69;100.00;97997.00;5052606;28;20906;-78
2023/02/02 05:08:16;;;;;;;11.73;3.67;;;5.80;99.90;;;4.54;100.00;97999.81;5052707;28;20420;-79
2023/02/02 05:10:42;;;;;;;10.75;3.30;;;5.70;99.90;;;4.55;100.00;98001.41;5051257;28;20834;-80
2023/02/02 05:13:08;;;;;;;12.48;3.33;;;5.70;99.90;;;4.62;100.00;98004.88;5062861;28;20424;-78
2023/02/02 05:15:34;;;;;;;14.43;3.53;;;5.70;99.90;;;4.52;100.00;98020.16;5060888;28;20429;-76
2023/02/02 05:18:02;;;;;;;13.75;3.58;;;5.70;99.90;;;4.51;100.00;98008.03;5063322;28;20405;-76
2023/02/02 05:20:27;;;;;;;16.48;3.90;;;5.60;99.90;;;4.63;100.00;98034.50;5067516;28;20442;-76
2023/02/02 05:22:53;;;;;;;12.65;3.60;;;5.70;99.90;;;4.52;100.00;98022.78;5062543;28;20403;-76
2023/02/02 05:25:19;;;;;;;14.30;3.53;;;5.60;99.90;;;4.61;100.00;98024.22;5067553;28;20440;-79
2023/02/02 05:27:45;;;;;;;8.63;3.17;;;5.60;99.90;;;4.50;100.00;98021.38;5072338;28;20403;-80
2023/02/02 05:30:13;;;;;;;16.25;3.90;;;5.60;99.90;;;4.55;100.00;98034.69;5072279;28;20483;-79
2023/02/02 05:32:40;;;;;;;17.35;3.63;;;5.60;99.90;;;4.47;100.00;98032.25;5071749;28;20449;-79
2023/02/02 05:35:09;;;;;;;17.50;3.88;;;5.60;99.90;;;4.46;100.00;98044.53;5072079;28;20896;-79
2023/02/02 05:37:35;;;;;;;17.50;3.83;;;5.60;99.90;;;4.37;100.00;98037.84;5072090;28;20399;-80
2023/02/02 05:40:01;;;;;;;13.93;3.80;;;5.50;99.90;;;4.63;100.00;98029.28;5071943;28;20477;-80
2023/02/02 05:42:27;;;;;;;13.88;3.80;;;5.60;99.90;;;4.55;100.00;98029.44;5071560;28;20415;-80
2023/02/02 05:44:53;;;;;;;11.95;3.38;;;5.70;99.90;;;4.50;100.00;98022.19;5072018;28;20457;-80
2023/02/02 05:47:19;;;;;;;16.20;3.80;;;5.60;99.90;;;4.61;100.00;98033.91;5071831;28;20395;-80
2023/02/02 05:49:45;;;;;;;15.73;3.80;;;5.60;99.90;;;4.82;100.00;98030.31;5071733;28;20392;-78
2023/02/02 05:52:17;;;;;;;19.45;3.85;;;5.80;99.90;;;4.62;100.00;98030.28;5071401;28;20431;-78
2023/02/02 05:54:43;;;;;;;10.27;3.40;;;5.70;99.90;;;4.75;100.00;98039.97;5071342;28;20402;-77
2023/02/02 05:57:09;;;;;;;18.92;4.45;;;5.70;99.90;;;4.72;100.00;98041.22;5064878;28;20472;-79
2023/02/02 05:59:35;;;;;;;13.82;3.95;;;5.70;99.90;;;4.58;100.00;98047.41;5063272;28;20404;-79
2023/02/02 06:02:01;;;;;;;14.02;4.25;;;5.70;99.90;;;4.48;100.00;98024.19;5070046;28;20423;-79
2023/02/02 06:04:26;;;;;;;11.40;3.80;;;5.60;99.90;;;4.50;100.00;98029.25;5088595;28;21001;-79
2023/02/02 06:06:52;;;;;;;12.70;3.72;;;5.60;99.90;;;4.49;100.00;98030.25;5089838;28;20936;-80
2023/02/02 06:09:19;;;;;;;13.95;3.60;;;5.60;99.90;;;4.63;100.00;98022.22;5090414;28;20394;-77
2023/02/02 06:11:45;;;;;;;12.88;3.35;;;5.60;99.90;;;4.70;100.00;98027.47;5089983;28;20511;-77
2023/02/02 06:14:12;;;;;;;14.03;4.33;;;5.80;99.90;;;4.59;100.00;98020.16;5069149;28;20931;-82
2023/02/02 06:16:38;;;;;;;13.52;3.67;;;5.70;99.90;;;4.60;100.00;98027.03;5051164;28;20424;-81
2023/02/02 06:19:04;;;;;;;17.73;4.40;;;5.70;99.90;;;4.77;100.00;98017.81;5051196;28;20413;-82
2023/02/02 06:21:30;;;;;;;16.48;4.45;;;5.80;99.90;;;4.64;100.00;98039.56;5050907;28;20402;-80
2023/02/02 06:23:57;;;;;;;16.88;4.15;;;5.70;99.90;;;4.52;100.00;98030.63;5051390;28;20887;-81
2023/02/02 06:26:25;;;;;;;16.38;4.32;;;5.60;99.90;;;4.52;100.00;98046.38;5051302;28;20405;-82
2023/02/02 06:28:53;;;;;;;18.77;4.20;;;5.60;99.90;;;4.55;100.00;98053.84;5051264;28;20485;-82
2023/02/02 06:31:19;;;;;;;15.50;4.45;;;5.70;99.90;;;4.59;100.00;98057.69;5050931;28;20394;-81
2023/02/02 06:33:46;;;;;;;13.13;3.85;;;5.70;99.90;;;4.78;100.00;98053.53;5050863;28;20724;-81
2023/02/02 06:36:12;;;;;;;16.63;3.97;;;5.80;99.90;;;4.72;100.00;98056.13;5051054;28;20445;-81
2023/02/02 06:38:38;;;;;;;15.93;3.95;;;5.80;99.90;;;4.65;100.00;98048.25;5051031;28;20412;-81
2023/02/02 06:41:05;;;;;;;17.85;4.32;;;5.70;99.90;;;4.70;100.00;98047.66;5053088;28;20440;-78
2023/02/02 06:43:32;;;;;;;18.13;4.18;;;5.70;99.90;;;4.66;100.00;98048.03;5070321;28;20396;-79
2023/02/02 06:45:59;;;;;;;13.05;4.13;;;5.70;99.90;;;4.81;100.00;98047.88;5070685;28;20400;-81
2023/02/02 06:48:25;;;;;;;16.92;4.50;;;5.80;99.90;;;4.67;100.00;98064.56;5071392;28;20469;-79
2023/02/02 06:50:52;;;;;;;19.45;4.40;;;5.80;99.90;;;4.59;100.00;98076.03;5062065;28;20483;-83
2023/02/02 06:53:21;;;;;;;20.27;5.07;;;5.70;99.90;;;4.68;100.00;98055.69;5059806;28;20400;-82
2023/02/02 06:55:53;;;;;;;12.77;3.75;;;5.80;99.90;;;4.63;100.00;98064.16;5061205;28;20904;-82
2023/02/02 06:58:19;;;;;;;14.23;3.65;;;5.80;99.90;;;4.64;100.00;98068.41;5060540;28;20444;-83
2023/02/02 07:00:47;;;;;;;14.47;3.70;;;5.70;99.90;;;4.62;100.00;98072.22;5059614;28;20732;-82
2023/02/02 07:03:13;;;;;;;15.13;4.10;;;5.70;99.90;;;4.76;100.00;98075.69;5059504;28;20406;-84
2023/02/02 07:05:39;;;;;;;12.32;3.28;;;5.70;99.90;;;4.72;100.00;98067.44;5059579;28;20402;-79
2023/02/02 07:08:04;;;;;;;12.57;3.43;;;5.70;99.90;;;4.67;100.00;98067.19;5070721;28;20403;-79
2023/02/02 07:10:30;;;;;;;8.38;3.28;;;5.70;99.90;;;4.71;100.00;98065.81;5061629;28;20441;-77
2023/02/02 07:12:56;;;;;;;13.63;3.20;;;5.80;99.90;;;4.89;100.00;98065.25;5059174;28;20400;-77
2023/02/02 07:15:22;;;;;;;12.87;3.23;;;5.80;99.90;;;4.78;100.00;98068.44;5053698;28;20416;-79
2023/02/02 07:17:49;;;;;;;14.55;3.38;;;5.80;99.90;;;4.64;100.00;98063.16;5054809;28;20416;-83
2023/02/02 07:20:16;;;;;;;9.35;2.88;;;5.80;99.90;;;4.67;100.00;98049.66;5051727;28;20474;-81
2023/02/02 07:22:42;;;;;;;12.05;2.90;;;5.80;99.90;;;4.51;100.00;98080.66;5057635;28;20897;-81
2023/02/02 07:25:08;;;;;;;9.93;2.97;;;5.60;99.90;;;4.57;100.00;98072.00;5051859;28;20428;-81
2023/02/02 07:27:34;;;;;;;7.45;2.80;;;5.70;99.90;;;4.65;100.00;98069.22;5060989;28;20402;-81
2023/02/02 07:29:59;;;;;;;12.05;2.90;;;5.70;99.90;;;4.60;100.00;98074.22;5058918;28;20486;-80
2023/02/02 07:32:25;;;;;;;7.33;3.20;;;5.70;99.90;;;4.72;100.00;98074.50;5060353;28;20430;-80
2023/02/02 07:34:53;;;;;;;7.13;2.80;;;5.70;99.90;;;4.57;100.00;98074.63;5059390;28;20409;-81
2023/02/02 07:37:18;;;;;;;12.15;3.00;;;5.70;99.90;;;4.61;100.00;98081.09;5058978;28;20411;-82
2023/02/02 07:39:44;;;;;;;9.25;2.90;;;5.70;99.90;;;4.48;100.00;98094.97;5060964;28;20418;-81
2023/02/02 07:42:11;;;;;;;5.75;2.60;;;5.60;99.90;;;4.55;100.00;98085.31;5059286;28;20411;-81
2023/02/02 07:44:37;;;;;;;10.02;3.05;;;5.60;99.90;;;4.69;100.00;98083.53;5060485;28;20406;-81
2023/02/02 07:47:03;;;;;;;5.50;2.78;;;5.70;99.90;;;4.83;100.00;98090.44;5058666;28;20410;-81
2023/02/02 07:49:29;;;;;;;6.78;2.72;;;5.80;99.90;;;4.81;100.00;98086.44;5064353;28;20593;-81
2023/02/02 07:51:57;;;;;;;11.65;3.50;;;5.90;99.90;;;4.61;100.00;98102.06;5062326;28;20409;-81
2023/02/02 07:54:23;;;;;;;10.32;3.28;;;5.70;99.90;;;4.73;100.00;98099.72;5050204;28;20409;-81
2023/02/02 07:56:49;;;;;;;12.57;3.65;;;5.80;99.90;;;4.68;100.00;98067.00;5051145;28;20413;-82
2023/02/02 07:59:15;;;;;;;10.43;3.08;;;5.80;99.90;;;4.66;100.00;98076.88;5050064;28;20414;-80
2023/02/02 08:01:41;;;;;;;14.18;3.70;;;5.70;99.90;;;4.61;100.00;98060.94;5049652;28;20732;-80
2023/02/02 08:04:07;;;;;;;12.80;3.80;;;5.70;99.90;;;4.67;100.00;98054.91;5049948;28;20405;-81
2023/02/02 08:06:35;;;;;;;10.87;3.40;;;5.70;99.90;;;4.76;100.00;98052.91;5048710;28;20972;-80
2023/02/02 08:09:06;;;;;;;11.23;3.83;;;5.80;99.90;;;4.92;100.00;98056.97;5054933;28;20481;-81
2023/02/02 08:11:33;;;;;;;13.98;3.95;;;6.00;99.90;;;5.01;100.00;98037.44;5049586;28;20389;-82
2023/02/02 08:14:00;;;;;;;9.43;3.15;;;6.00;99.90;;;4.92;100.00;98057.78;5049928;28;20409;-80
2023/02/02 08:16:28;;;;;;;12.63;4.00;;;6.00;99.90;;;4.96;100.00;98050.34;5050992;28;20417;-80
2023/02/02 08:18:55;;;;;;;11.02;3.55;;;6.00;99.90;;;4.88;100.00;98061.84;5053627;28;20402;-80
2023/02/02 08:21:21;;;;;;;13.68;3.38;;;6.00;99.90;;;5.05;100.00;98059.63;5053538;28;20401;-79
2023/02/02 08:23:48;;;;;;;10.90;3.40;;;6.10;99.90;;;4.98;100.00;98071.94;5053483;28;20436;-80
2023/02/02 08:26:19;;;;;;;14.70;3.38;;;6.10;99.90;;;4.98;100.00;98082.41;5053467;28;20491;-79
2023/02/02 08:28:47;;;;;;;9.07;2.67;;;6.00;99.90;;;5.18;100.00;98092.97;5060695;28;20890;-77
2023/02/02 08:31:18;;;;;;;13.90;3.25;;;6.20;99.90;;;5.24;100.00;98095.63;5059880;28;20483;-79
2023/02/02 08:33:44;;;;;;;16.23;3.75;;;6.30;99.90;;;5.54;100.00;98106.56;5061550;28;20415;-80
2023/02/02 08:36:12;;;;;;;15.82;3.28;;;6.50;99.90;;;5.39;100.00;98104.13;5058452;28;20419;-80
2023/02/02 08:38:38;;;;;;;13.63;3.35;;;6.50;99.90;;;5.38;100.00;98112.19;5056524;28;20425;-80
2023/02/02 08:41:05;;;;;;;11.40;3.30;;;6.50;99.90;;;5.21;100.00;98124.06;5064407;28;20938;-80
2023/02/02 08:43:32;;;;;;;12.20;3.35;;;6.30;99.90;;;5.32;100.00;98116.41;5062600;28;20420;-80
2023/02/02 08:45:58;;;;;;;16.45;3.75;;;6.30;99.90;;;5.22;100.00;98131.75;5060124;28;20420;-79
2023/02/02 08:48:24;;;;;;;12.30;3.20;;;6.30;99.90;;;5.34;100.00;98130.13;5061632;28;20769;-76
2023/02/02 08:50:55;;;;;;;12.43;3.40;;;6.40;99.90;;;5.42;100.00;98126.50;5057012;28;20495;-77
2023/02/02 08:53:22;;;;;;;11.68;3.10;;;6.50;99.90;;;5.52;100.00;98134.81;5051364;28;20458;-77
2023/02/02 08:55:56;;;;;;;12.93;3.40;;;6.50;99.90;;;5.38;100.00;98146.31;5064780;28;20451;-77
2023/02/02 08:58:22;;;;;;;10.32;3.63;;;6.50;99.90;;;5.42;100.00;98148.31;5055852;28;20432;-80
2023/02/02 09:00:49;;;;;;;9.82;3.40;;;6.50;99.90;;;5.40;100.00;98139.06;5067262;28;20447;-79
2023/02/02 09:03:16;;;;;;;16.17;3.83;;;6.40;99.90;;;5.37;100.00;98158.63;5059224;28;20425;-79
2023/02/02 09:05:43;;;;;;;11.60;3.83;;;6.40;99.90;;;5.30;100.00;98149.13;5063317;28;20559;-79
2023/02/02 09:08:09;;;;;;;13.15;3.30;;;6.40;99.90;;;5.38;100.00;98144.50;5068209;28;21130;-80
2023/02/02 09:10:35;;;;;;;14.80;4.28;;;6.40;99.90;;;5.36;100.00;98158.81;5070318;28;20407;-80
2023/02/02 09:13:01;;;;;;;11.80;3.40;;;6.40;99.90;;;5.44;100.00;98166.50;5060666;28;20396;-79
2023/02/02 09:15:27;;;;;;;14.90;3.60;;;6.40;99.90;;;5.47;100.00;98162.69;5060350;28;20401;-79
2023/02/02 09:17:54;;;;;;;13.97;3.87;;;6.50;99.90;;;5.41;100.00;98170.34;5064643;28;20482;-79
2023/02/02 09:20:20;;;;;;;11.30;3.65;;;6.40;99.90;;;5.32;100.00;98153.19;5069998;28;20429;-80
2023/02/02 09:22:47;;;;;;;14.07;4.10;;;6.40;99.90;;;5.33;100.00;98157.41;5071697;28;20403;-80
2023/02/02 09:25:13;;;;;;;15.68;3.72;;;6.40;99.90;;;5.46;100.00;98172.38;5068332;28;20917;-80
2023/02/02 09:27:40;;;;;;;13.73;4.03;;;6.40;99.90;;;5.45;100.00;98162.88;5061896;28;20413;-79
2023/02/02 09:30:07;;;;;;;9.60;3.72;;;6.50;99.90;;;5.31;100.00;98167.31;5067770;28;20890;-79
2023/02/02 09:32:33;;;;;;;19.35;4.63;;;6.40;99.90;;;5.31;100.00;98153.38;5056805;28;20406;-79
2023/02/02 09:35:00;;;;;;;17.17;4.28;;;6.30;99.90;;;5.34;100.00;98155.56;5058020;28;20429;-79
2023/02/02 09:37:26;;;;;;;19.58;4.88;;;6.30;99.90;;;5.26;100.00;98155.78;5070451;28;20412;-80
2023/02/02 09:39:52;;;;;;;11.57;4.20;;;6.30;99.90;;;5.34;100.00;98169.50;5061876;28;20941;-79
2023/02/02 09:42:39;;;;;;;13.30;3.90;;;6.40;99.90;;;5.47;100.00;98168.75;5059577;28;20425;-79
2023/02/02 09:45:17;;;;;;;13.23;4.38;;;6.30;99.90;;;5.34;100.00;98173.94;5060207;28;20437;-77
2023/02/02 09:47:57;;;;;;;11.05;4.03;;;6.40;99.90;;;5.40;100.00;98207.31;5052898;28;20436;-80
2023/02/02 09:50:47;;;;;;;16.97;4.40;;;6.50;99.90;;;5.40;100.00;98192.38;5059886;28;20490;-79
2023/02/02 09:53:23;;;;;;;17.40;4.37;;;6.40;99.90;;;5.29;100.00;98189.50;5061819;28;20405;-80
2023/02/02 09:55:54;;;;;;;18.70;4.75;;;6.40;99.90;;;5.18;100.00;98196.16;5064288;28;20475;-80
2023/02/02 09:58:26;;;;;;;17.48;4.65;;;6.20;99.90;;;5.15;100.00;98188.66;5058684;28;20462;-80
2023/02/02 10:01:00;;;;;;;16.35;4.55;;;6.30;99.90;;;5.34;100.00;98190.50;5063737;28;20466;-75
2023/02/02 10:03:34;;;;;;;15.90;4.33;;;6.40;99.90;;;5.38;100.00;98199.63;5055002;28;20441;-73
2023/02/02 10:06:13;;;;;;;15.52;3.88;;;6.40;99.90;;;5.40;100.00;98194.19;5058152;28;20421;-75
2023/02/02 10:08:46;;;;;;;12.50;3.58;;;6.40;99.90;;;5.27;100.00;98204.63;5054308;28;20549;-74
2023/02/02 10:11:32;;;;;;;17.42;4.65;;;6.40;99.90;;;5.21;100.00;98198.34;5055728;28;21345;-74
2023/02/02 10:14:05;;;;;;;12.82;4.40;;;6.30;99.90;;;5.30;100.00;98194.56;5054418;28;20412;-75
2023/02/02 10:16:36;;;;;;;16.17;4.40;;;6.30;99.90;;;5.32;100.00;98178.63;5051764;28;20417;-73
2023/02/02 10:19:08;;;;;;;13.35;4.35;;;6.30;99.90;;;5.40;100.00;98181.06;5063107;28;20408;-72
2023/02/02 10:21:44;;;;;;;14.45;4.18;;;6.40;99.90;;;5.32;100.00;98189.13;5053875;28;20468;-74
2023/02/02 10:24:17;;;;;;;13.85;4.35;;;6.40;99.90;;;5.44;100.00;98180.44;5058428;28;20409;-75
2023/02/02 10:26:49;;;;;;;14.68;3.72;;;6.30;99.90;;;5.29;100.00;98203.44;5057609;28;20413;-74
2023/02/02 10:29:31;;;;;;;14.18;4.30;;;6.40;99.90;;;5.34;100.00;98192.31;5056048;28;20439;-73
2023/02/02 10:32:12;;;;;;;13.60;3.83;;;6.30;99.90;;;5.43;100.00;98197.22;5051725;28;20404;-73
2023/02/02 10:34:41;;;;;;;13.30;3.90;;;6.40;99.90;;;5.31;100.00;98205.88;5052780;28;21011;-73
2023/02/02 10:37:25;;;;;;;17.60;3.78;;;6.40;99.90;;;5.23;100.00;98201.59;5050404;28;21009;-74